logo
Search for airport 
image banner adimage banner adimage banner ad
image banner ad

EDXH - Helgoland Duene

Located in , Germany

ICAO - EDXH, IATA - HGL

Data provided by Airmate  

General information

Coordinates: N54°11'7" E7°54'57"
Elevation is 8 feet MSL.
 
View others Airports in Schleswig-Holstein

Operational data

Special qualification required
Current time UTC:
Current local time:
Weather at : ETMN - Nordholz ( 67 km )
METAR: ETMN 241720Z 14004KT 9999 FEW050 15/10 Q1024 BLU+
View NOTAMs / SUP AIP / TFR affecting this airport [VIEW]
Communications frequencies: [VIEW]

Runways:

RWY identifierQFULength (ft)Width (ft)SurfaceLDA (ft)
0327°121766CONC1217
21207°121766CONC1217
0657°84639CONC846
24237°84639CONC846
15147°157598CONC1575
33327°157598CONC1575

Airport contact information

Address: Germany

Satellite view of EDXH